Time;durP1;ratioP1;P1;durP2;ratioP2;P2;SDS_P1;SDS_P2;PMS_P1;PMS_P2;Temp;Humidity;BMP_temperature;BMP_pressure;BME280_temperature;BME280_humidity;BME280_pressure;Samples;Min_cycle;Max_cycle;Signal;HPM_P1;HPM_P2
2022/11/12 00:08:19;;;;;;;19.33;17.37;;;;;9.40;100512.00;;;;16522450;28;20204;-48
2022/11/12 00:16:41;;;;;;;21.70;18.40;;;;;9.50;100514.00;;;;16521685;28;20220;-48
2022/11/12 00:25:02;;;;;;;22.43;17.53;;;;;9.40;100519.00;;;;16520561;28;20227;-48
2022/11/12 00:33:25;;;;;;;22.50;20.20;;;;;9.30;100517.00;;;;16533636;28;20231;-48
2022/11/12 00:41:46;;;;;;;19.23;17.23;;;;;9.20;100524.00;;;;16520311;28;20239;-48
2022/11/12 00:50:09;;;;;;;18.80;16.83;;;;;9.10;100505.00;;;;16518125;28;20220;-48
2022/11/12 00:58:31;;;;;;;20.10;14.77;;;;;8.10;100531.00;;;;16509160;28;20203;-48
2022/11/12 01:06:53;;;;;;;28.70;22.60;;;;;8.70;100514.00;;;;16519083;28;20227;-48
2022/11/12 01:15:14;;;;;;;19.70;17.60;;;;;8.70;100511.00;;;;16524412;28;20219;-48
2022/11/12 01:23:38;;;;;;;26.87;18.00;;;;;8.70;100523.00;;;;16514963;28;20586;-49
2022/11/12 01:31:59;;;;;;;29.23;24.53;;;;;8.50;100515.00;;;;16517485;28;20215;-49
2022/11/12 01:40:22;;;;;;;15.93;14.33;;;;;8.30;100504.00;;;;16516925;28;20699;-48
2022/11/12 01:48:49;;;;;;;17.63;15.60;;;;;8.30;100498.00;;;;16518096;28;20206;-48
2022/11/12 01:57:12;;;;;;;16.90;15.27;;;;;8.30;100492.00;;;;16523411;28;20219;-48
2022/11/12 02:05:34;;;;;;;15.20;13.63;;;;;8.00;100494.00;;;;16528312;28;20230;-48
2022/11/12 02:14:00;;;;;;;15.40;13.67;;;;;7.80;100501.00;;;;16536969;28;20592;-49
2022/11/12 02:22:22;;;;;;;15.93;14.30;;;;;7.60;100490.00;;;;16525752;28;20229;-48
2022/11/12 02:30:46;;;;;;;14.63;13.13;;;;;7.60;100480.00;;;;16525655;28;20231;-48
2022/11/12 02:39:08;;;;;;;16.43;11.93;;;;;7.50;100467.00;;;;16528912;28;20222;-49
2022/11/12 02:47:29;;;;;;;11.83;10.73;;;;;7.40;100476.00;;;;16535292;28;20211;-48
2022/11/12 02:55:52;;;;;;;12.20;10.27;;;;;7.40;100486.00;;;;16527867;28;20227;-48
2022/11/12 03:04:13;;;;;;;13.20;11.80;;;;;7.40;100485.00;;;;16557456;28;20227;-48
2022/11/12 03:12:35;;;;;;;12.07;10.03;;;;;7.40;100498.00;;;;16521798;28;20231;-46
2022/11/12 03:20:56;;;;;;;11.60;10.50;;;;;7.30;100490.00;;;;16523866;28;20910;-48
2022/11/12 03:29:19;;;;;;;12.13;10.93;;;;;7.80;100486.00;;;;16518796;28;20596;-49
2022/11/12 03:37:40;;;;;;;11.83;10.60;;;;;7.90;100479.00;;;;16525870;28;20686;-48
2022/11/12 03:46:02;;;;;;;11.37;9.70;;;;;7.90;100485.00;;;;16537175;28;20602;-48
2022/11/12 03:54:23;;;;;;;11.10;10.00;;;;;8.00;100495.00;;;;16523176;28;20214;-48
2022/11/12 04:02:45;;;;;;;13.07;11.77;;;;;8.10;100487.00;;;;16535766;28;20234;-47
2022/11/12 04:11:09;;;;;;;12.33;11.23;;;;;8.10;100490.00;;;;16529884;28;20227;-48
2022/11/12 04:28:10;;;;;;;11.87;9.73;;;;;8.10;100480.00;;;;16521203;28;20240;-48
2022/11/12 04:36:32;;;;;;;12.37;10.00;;;;;8.40;100465.00;;;;16521989;28;20232;-48
2022/11/12 04:45:03;;;;;;;12.50;9.73;;;;;8.30;100458.00;;;;16536120;28;20852;-48
2022/11/12 04:53:26;;;;;;;10.27;9.27;;;;;8.20;100467.00;;;;16512892;28;20720;-49
2022/11/12 05:01:47;;;;;;;10.50;9.30;;;;;8.20;100476.00;;;;16530130;28;20238;-48
2022/11/12 05:10:10;;;;;;;11.90;10.27;;;;;8.20;100475.00;;;;16522271;28;20718;-48
2022/11/12 05:18:31;;;;;;;13.13;11.20;;;;;8.20;100477.00;;;;16520592;28;20294;-48
2022/11/12 05:26:54;;;;;;;12.30;10.70;;;;;8.30;100477.00;;;;16521302;28;20638;-48
2022/11/12 05:35:15;;;;;;;13.20;11.20;;;;;8.30;100472.00;;;;16529250;28;20234;-47
2022/11/12 05:43:37;;;;;;;13.97;11.87;;;;;8.40;100474.00;;;;16528831;28;20225;-48
2022/11/12 05:51:58;;;;;;;13.63;11.10;;;;;8.10;100486.00;;;;16527570;28;20734;-47
2022/11/12 06:00:21;;;;;;;15.50;12.13;;;;;8.20;100488.00;;;;16542723;28;20231;-47
2022/11/12 06:08:42;;;;;;;12.90;10.43;;;;;8.10;100499.00;;;;16523117;28;20294;-49
2022/11/12 06:17:04;;;;;;;13.23;11.17;;;;;8.00;100502.00;;;;16541705;28;20203;-49
2022/11/12 06:25:25;;;;;;;15.00;10.40;;;;;8.00;100510.00;;;;16524979;28;20229;-49
2022/11/12 06:33:48;;;;;;;10.40;9.13;;;;;8.10;100510.00;;;;16527813;28;20314;-48
2022/11/12 06:42:09;;;;;;;13.53;10.83;;;;;8.50;100516.00;;;;16497278;28;20230;-48
2022/11/12 06:50:31;;;;;;;12.20;10.60;;;;;8.60;100489.00;;;;16522848;28;20306;-48
2022/11/12 06:58:52;;;;;;;10.60;9.50;;;;;8.40;100497.00;;;;16512884;28;20223;-48
2022/11/12 07:07:15;;;;;;;10.30;9.23;;;;;8.30;100513.00;;;;16473388;28;20232;-48
2022/11/12 07:15:35;;;;;;;12.30;11.00;;;;;8.60;100483.00;;;;16464231;28;20256;-48
2022/11/12 07:23:58;;;;;;;11.30;10.20;;;;;8.50;100495.00;;;;16467785;28;20226;-48
2022/11/12 07:32:19;;;;;;;12.70;8.50;;;;;12.90;100462.00;;;;16465987;28;20225;-45
2022/11/12 07:40:42;;;;;;;12.60;9.10;;;;;12.60;100460.00;;;;16498684;28;20256;-44
2022/11/12 07:49:03;;;;;;;11.23;9.73;;;;;10.40;100477.00;;;;16485594;28;20212;-49
2022/11/12 07:57:26;;;;;;;11.57;9.63;;;;;9.00;100482.00;;;;16476745;28;20730;-48
2022/11/12 08:05:47;;;;;;;12.07;10.77;;;;;8.70;100487.00;;;;16491783;28;20231;-49
2022/11/12 08:14:09;;;;;;;14.10;11.83;;;;;8.70;100489.00;;;;16492001;28;20235;-49
2022/11/12 08:22:32;;;;;;;14.57;11.67;;;;;8.90;100492.00;;;;16519302;28;20252;-48
2022/11/12 08:30:55;;;;;;;15.70;13.23;;;;;8.90;100486.00;;;;16490799;28;20232;-49
2022/11/12 08:39:16;;;;;;;16.03;14.20;;;;;8.90;100484.00;;;;16520640;23;20356;-76
2022/11/12 08:47:38;;;;;;;12.37;11.07;;;;;9.20;100488.00;;;;16608509;28;20709;-74
2022/11/12 08:56:00;;;;;;;13.30;11.03;;;;;9.40;100484.00;;;;16632804;28;20304;-75
2022/11/12 09:04:23;;;;;;;10.73;9.63;;;;;9.60;100483.00;;;;16627620;28;20230;-75
2022/11/12 09:12:44;;;;;;;13.40;11.57;;;;;9.40;100479.00;;;;16627914;28;20284;-75
2022/11/12 09:21:08;;;;;;;11.30;10.13;;;;;9.40;100472.00;;;;16625446;28;20231;-74
2022/11/12 09:29:29;;;;;;;10.97;9.87;;;;;9.70;100456.00;;;;16625602;28;20289;-75
2022/11/12 09:37:51;;;;;;;11.57;10.33;;;;;10.10;100457.00;;;;16621250;28;20227;-76
2022/11/12 09:46:29;;;;;;;12.60;11.20;;;;;10.30;100451.00;;;;16611506;28;20711;-73
2022/11/12 09:54:58;;;;;;;14.10;9.80;;;;;10.20;100445.00;;;;16630138;28;20242;-75
2022/11/12 10:03:27;;;;;;;11.07;10.00;;;;;10.40;100441.00;;;;16614636;28;20227;-70
2022/11/12 10:20:47;;;;;;;11.50;10.30;;;;;10.90;100434.00;;;;16628312;28;20227;-70
2022/11/12 10:29:17;;;;;;;11.50;10.50;;;;;11.90;100420.00;;;;16620988;28;20568;-72
2022/11/12 10:37:45;;;;;;;11.37;10.27;;;;;12.40;100404.00;;;;16623969;28;20223;-73
2022/11/12 10:46:20;;;;;;;11.57;10.40;;;;;12.10;100401.00;;;;16631129;28;20312;-71
2022/11/12 10:54:41;;;;;;;12.53;10.27;;;;;12.70;100388.00;;;;16630432;28;20846;-70
2022/11/12 11:03:07;;;;;;;10.47;9.57;;;;;13.30;100374.00;;;;16633455;28;20238;-73
2022/11/12 11:11:29;;;;;;;11.50;10.40;;;;;13.80;100368.00;;;;16605469;28;20226;-72
2022/11/12 11:19:52;;;;;;;12.80;11.60;;;;;14.00;100358.00;;;;16622411;28;20212;-72
2022/11/12 11:28:23;;;;;;;10.00;9.10;;;;;14.10;100348.00;;;;16627538;28;20210;-72
2022/11/12 11:36:51;;;;;;;10.87;9.07;;;;;16.30;100334.00;;;;16616532;28;20231;-75
2022/11/12 11:45:17;;;;;;;10.33;9.40;;;;;17.50;100308.00;;;;16617894;28;20226;-74
2022/11/12 11:53:49;;;;;;;8.63;7.93;;;;;17.70;100304.00;;;;16603207;28;20226;-75
2022/11/12 12:02:36;;;;;;;9.33;8.10;;;;;17.60;100288.00;;;;16609471;28;20238;-74
2022/11/12 12:11:03;;;;;;;7.80;7.00;;;;;18.40;100289.00;;;;16600546;28;20224;-74
2022/11/12 12:19:37;;;;;;;8.47;6.70;;;;;18.30;100276.00;;;;16601321;28;20760;-75
2022/11/12 12:28:02;;;;;;;8.00;7.20;;;;;19.00;100268.00;;;;16592682;28;20693;-75
2022/11/12 12:36:27;;;;;;;7.83;7.20;;;;;18.60;100269.00;;;;16610110;28;20592;-74
2022/11/12 12:45:00;;;;;;;7.83;7.13;;;;;18.90;100264.00;;;;16593371;28;20227;-75
2022/11/12 12:53:33;;;;;;;12.77;11.40;;;;;19.30;100250.00;;;;16603527;28;20723;-75
2022/11/12 13:01:58;;;;;;;7.73;6.97;;;;;19.80;100245.00;;;;16642850;28;20237;-78
2022/11/12 13:10:52;;;;;;;7.37;6.77;;;;;20.00;100229.00;;;;16628208;28;20198;-77
2022/11/12 13:19:27;;;;;;;7.03;6.47;;;;;20.00;100226.00;;;;16626661;28;20206;-80
2022/11/12 13:28:14;;;;;;;7.30;6.60;;;;;20.50;100214.00;;;;16634068;28;20286;-78
2022/11/12 13:36:37;;;;;;;8.13;7.43;;;;;20.90;100217.00;;;;16593612;28;20264;-78
2022/11/12 13:45:00;;;;;;;10.13;9.23;;;;;20.00;100224.00;;;;16606057;28;20247;-78
2022/11/12 13:53:25;;;;;;;8.07;7.27;;;;;20.20;100220.00;;;;16613615;28;20836;-79
2022/11/12 14:01:48;;;;;;;10.37;9.30;;;;;19.90;100216.00;;;;16623426;28;20219;-79
2022/11/12 14:10:19;;;;;;;12.57;11.27;;;;;19.40;100213.00;;;;16626658;28;20598;-79
2022/11/12 14:18:52;;;;;;;12.53;11.33;;;;;18.90;100227.00;;;;16621722;28;20196;-79
2022/11/12 14:27:34;;;;;;;12.73;11.50;;;;;19.00;100208.00;;;;16621334;28;20707;-77
2022/11/12 14:36:00;;;;;;;11.73;10.50;;;;;19.10;100206.00;;;;16633427;28;20262;-78
2022/11/12 14:44:26;;;;;;;12.47;11.33;;;;;18.90;100196.00;;;;16624793;28;20255;-77
2022/11/12 14:52:51;;;;;;;14.80;12.90;;;;;18.50;100182.00;;;;16619642;28;20687;-76
2022/11/12 15:01:25;;;;;;;11.50;10.40;;;;;18.00;100196.00;;;;16616998;28;20227;-77
2022/11/12 15:09:46;;;;;;;16.83;13.63;;;;;16.80;100197.00;;;;16641499;28;20209;-70
2022/11/12 15:18:18;;;;;;;11.63;10.50;;;;;14.30;100216.00;;;;16613246;28;20224;-71
2022/11/12 15:26:41;;;;;;;9.97;9.00;;;;;13.20;100209.00;;;;16616479;28;20234;-70
2022/11/12 15:35:04;;;;;;;16.50;13.00;;;;;12.80;100208.00;;;;16624401;28;20230;-71
2022/11/12 15:43:27;;;;;;;12.30;11.00;;;;;12.30;100209.00;;;;16600855;28;20683;-70
2022/11/12 15:51:55;;;;;;;13.77;10.77;;;;;12.00;100195.00;;;;16592336;28;20847;-70
2022/11/12 16:00:19;;;;;;;15.70;13.97;;;;;12.20;100204.00;;;;16611108;28;20208;-71
2022/11/12 16:08:41;;;;;;;13.10;11.80;;;;;12.00;100200.00;;;;16598149;28;20205;-71
2022/11/12 16:17:02;;;;;;;15.83;14.23;;;;;12.40;100198.00;;;;16597460;28;20230;-74
2022/11/12 16:25:27;;;;;;;19.33;14.30;;;;;11.30;100207.00;;;;16606695;28;20219;-69
2022/11/12 16:33:49;;;;;;;15.47;13.73;;;;;11.10;100200.00;;;;16602452;28;20227;-73
2022/11/12 16:42:13;;;;;;;15.77;13.97;;;;;11.20;100194.00;;;;16600678;28;20231;-73
2022/11/12 16:50:35;;;;;;;13.70;12.20;;;;;10.60;100191.00;;;;16602972;28;20607;-70
2022/11/12 16:58:57;;;;;;;14.63;12.47;;;;;10.60;100189.00;;;;16614906;28;20275;-69
2022/11/12 17:07:18;;;;;;;12.00;10.90;;;;;10.30;100191.00;;;;16637543;28;20223;-70
2022/11/12 17:15:40;;;;;;;15.03;13.53;;;;;10.10;100195.00;;;;16629020;28;20220;-73
2022/11/12 17:24:02;;;;;;;19.83;16.10;;;;;9.80;100196.00;;;;16606893;28;20383;-73
2022/11/12 17:32:24;;;;;;;15.73;14.03;;;;;9.70;100203.00;;;;16621456;28;20223;-72
2022/11/12 17:40:48;;;;;;;18.13;16.20;;;;;9.90;100194.00;;;;16616493;28;20234;-72
2022/11/12 17:49:11;;;;;;;15.37;13.77;;;;;9.70;100183.00;;;;16611439;28;20278;-72
2022/11/12 17:57:32;;;;;;;22.03;14.83;;;;;9.40;100176.00;;;;16617724;28;20216;-73
2022/11/12 18:05:59;;;;;;;21.33;17.90;;;;;9.30;100173.00;;;;16632777;28;20702;-73
2022/11/12 18:14:21;;;;;;;23.47;19.43;;;;;9.60;100177.00;;;;16621803;28;20230;-74
2022/11/12 18:22:44;;;;;;;25.93;23.33;;;;;9.10;100181.00;;;;16618817;28;20231;-69
2022/11/12 18:31:06;;;;;;;27.20;21.83;;;;;9.00;100175.00;;;;16620565;28;20231;-72
2022/11/12 18:39:29;;;;;;;21.77;19.53;;;;;8.90;100171.00;;;;16617945;28;20298;-71
2022/11/12 18:47:50;;;;;;;22.07;19.80;;;;;9.60;100152.00;;;;16624684;28;20313;-71
2022/11/12 18:56:15;;;;;;;22.63;20.43;;;;;9.00;100158.00;;;;16626869;28;20254;-70
2022/11/12 19:04:36;;;;;;;25.10;22.00;;;;;8.90;100143.00;;;;16627705;28;20229;-70
2022/11/12 19:13:02;;;;;;;27.43;23.30;;;;;8.80;100146.00;;;;16611104;28;20222;-71
2022/11/12 19:21:25;;;;;;;25.53;23.03;;;;;8.70;100147.00;;;;16619467;28;20222;-71
2022/11/12 19:29:48;;;;;;;29.40;25.77;;;;;8.90;100136.00;;;;16617342;28;20204;-71
2022/11/12 19:38:09;;;;;;;27.30;23.50;;;;;8.70;100146.00;;;;16597880;28;20215;-70
2022/11/12 19:46:32;;;;;;;26.73;23.83;;;;;8.80;100134.00;;;;16626119;28;20603;-69
2022/11/12 19:54:54;;;;;;;27.70;24.50;;;;;9.10;100136.00;;;;16642517;28;20219;-70
2022/11/12 20:03:19;;;;;;;22.63;20.33;;;;;8.80;100133.00;;;;16606221;28;20234;-70
2022/11/12 20:11:40;;;;;;;47.03;36.87;;;;;8.60;100130.00;;;;16614012;28;20234;-69
2022/11/12 20:20:03;;;;;;;22.43;20.13;;;;;8.90;100122.00;;;;16619854;28;20661;-72
2022/11/12 20:28:24;;;;;;;21.37;19.17;;;;;8.80;100116.00;;;;16620250;28;20257;-70
2022/11/12 20:36:47;;;;;;;64.57;34.47;;;;;8.30;100129.00;;;;16621578;28;20639;-72
2022/11/12 20:45:09;;;;;;;30.87;27.77;;;;;8.30;100109.00;;;;16625288;28;20237;-70
2022/11/12 20:53:31;;;;;;;21.20;18.93;;;;;8.20;100105.00;;;;16624916;28;20223;-71
2022/11/12 21:01:56;;;;;;;24.00;21.60;;;;;8.00;100110.00;;;;16621886;28;20244;-71
2022/11/12 21:10:19;;;;;;;21.80;19.57;;;;;7.90;100098.00;;;;16620912;28;20199;-71
2022/11/12 21:18:40;;;;;;;37.03;29.30;;;;;8.30;100092.00;;;;16616028;28;20203;-71
2022/11/12 21:27:03;;;;;;;22.40;20.00;;;;;8.00;100078.00;;;;16611187;28;20265;-70
2022/11/12 21:35:24;;;;;;;23.57;21.07;;;;;7.90;100081.00;;;;16612204;28;20222;-69
2022/11/12 21:43:47;;;;;;;21.23;18.93;;;;;8.70;100073.00;;;;16623497;28;20714;-69
2022/11/12 21:52:11;;;;;;;21.70;19.50;;;;;8.60;100060.00;;;;16620937;28;20227;-70
2022/11/12 22:00:33;;;;;;;22.77;20.27;;;;;7.40;100075.00;;;;16620440;28;20253;-70
2022/11/12 22:08:58;;;;;;;21.67;18.70;;;;;7.70;100053.00;;;;16633943;28;20307;-70
2022/11/12 22:17:20;;;;;;;21.90;19.87;;;;;7.70;100057.00;;;;16645827;28;20229;-71
2022/11/12 22:25:41;;;;;;;21.33;19.03;;;;;7.10;100055.00;;;;16639534;28;20228;-70
2022/11/12 22:34:04;;;;;;;27.03;23.10;;;;;7.50;100035.00;;;;16643813;28;20225;-71
2022/11/12 22:42:25;;;;;;;44.50;37.13;;;;;7.40;100020.00;;;;16659528;28;20238;-71
2022/11/12 22:50:47;;;;;;;29.33;26.30;;;;;7.80;100024.00;;;;16657350;28;20225;-71
2022/11/12 22:59:11;;;;;;;20.10;17.00;;;;;7.10;100019.00;;;;16668163;28;20214;-70
2022/11/12 23:07:33;;;;;;;18.13;16.33;;;;;7.20;100019.00;;;;16677348;28;20237;-71
2022/11/12 23:15:54;;;;;;;22.50;19.67;;;;;7.40;100012.00;;;;16666539;28;20222;-70
2022/11/12 23:24:17;;;;;;;15.93;14.23;;;;;8.10;100000.00;;;;16659309;28;20229;-71
2022/11/12 23:32:38;;;;;;;15.90;14.20;;;;;8.40;99991.00;;;;16652026;28;20947;-70
2022/11/12 23:41:01;;;;;;;18.00;15.93;;;;;8.40;99984.00;;;;16660883;28;20245;-70
2022/11/12 23:49:22;;;;;;;19.07;17.07;;;;;7.40;99986.00;;;;16641671;28;20221;-71
2022/11/12 23:57:44;;;;;;;21.10;17.07;;;;;7.70;99971.00;;;;16650690;28;20710;-70
